Crystal Falls, MI

1:03 AM CDT on March 31, 2015 (GMT -0500)
APRSWXNET | | Change Station
CLOSE
Current Station
Personal Weather Station
Location: Florence, WI
Elevation: 1258 ft
Nearby Weather Stations

Elev 1258 ft 46.00 °N, 88.16 °W | Updated 28 minutes ago

Mostly Cloudy
Mostly Cloudy
29 °F
Feels Like 29 °F
N
0
Wind Variable Wind from East
Gusts 0.0 mph

Today
High -- | Low -- °F
--% Chance of Precip.
Yesterday
High -- | Low -- °F
Precip. -- in
6:35 AM 7:20 PM
Waxing Gibbous, 84% visible
Pressure 29.87 in
Visibility 10.0 miles
Clouds Mostly Cloudy 11000 ft
Windchill 29 °F
Dew Point 26 °F
Humidity 88%
Rainfall in
Snow Depth Not available.
UV 0 out of 12
Pollen 5.40 out of 12
Air Quality Not available.
Flu Activity Not available.
METAR KIMT 310554Z AUTO 00000KT 10SM BKN110 M01/M05 A2983 RMK AO2 SLP114 T10111050 10083 21017 401111017 56005 TSNO

More Conditions Fewer Conditions

Pressure 29.87 in
Visibility 10.0 miles
Clouds Mostly Cloudy 11000 ft
Windchill 29 °F
Dew Point 26 °F
Humidity 88%
Rainfall in
Snow Depth Not available.
UV 0 out of 12
Pollen 5.40 out of 12
Air Quality Not available.
Flu Activity Not available.
METAR KIMT 310554Z AUTO 00000KT 10SM BKN110 M01/M05 A2983 RMK AO2 SLP114 T10111050 10083 21017 401111017 56005 TSNO

More Conditions Fewer Conditions

10-Day Weather Forecast

Almanac

Astronomy

Mar. 31, 2015 Rise Set
Actual Time
Civil Twilight
Nautical Twilight
Astronomical Twilight
Moon
Length of Visible Light
Length of Day
Tomorrow will be .
, % of the Moon is Illuminated

Today's Extremes

State Highs State Lows

Community

WunderPhotos

Upload Photos

1,809,724 photos uploaded!

WunderBlogs® & News

Nearby

Air Quality

  Air Quality AQ Index Pollutant
Not available.

Snow Depth

Station Depth Elevation

Earthquake Activity

City Distance Mag. Time & Date
Minimum magnitude displayed is 2.5.

Coastal Water Temperatures

Place Temperature

Stations

Nearby Weather Stations

Station Location Temp. Windchill Dew Point Humidity Wind Precip. Elev Updated Type